sensor_id;sensor_type;location;lat;lon;timestamp;temperature;humidity
6008;DHT22;3032;49.484;11.112;2023-02-24T00:01:10;12.10;99.90
6008;DHT22;3032;49.484;11.112;2023-02-24T00:03:37;12.10;99.90
6008;DHT22;3032;49.484;11.112;2023-02-24T00:06:06;12.20;99.90
6008;DHT22;3032;49.484;11.112;2023-02-24T00:08:37;12.20;99.90
6008;DHT22;3032;49.484;11.112;2023-02-24T00:11:14;12.20;99.90
6008;DHT22;3032;49.484;11.112;2023-02-24T00:13:42;12.30;99.90
6008;DHT22;3032;49.484;11.112;2023-02-24T00:16:15;12.10;99.90
6008;DHT22;3032;49.484;11.112;2023-02-24T00:18:43;12.00;99.90
6008;DHT22;3032;49.484;11.112;2023-02-24T00:21:12;11.90;99.90
6008;DHT22;3032;49.484;11.112;2023-02-24T00:23:40;12.00;99.90
6008;DHT22;3032;49.484;11.112;2023-02-24T00:26:07;12.00;99.90
6008;DHT22;3032;49.484;11.112;2023-02-24T00:28:34;12.00;99.90
6008;DHT22;3032;49.484;11.112;2023-02-24T00:31:08;12.10;99.90
6008;DHT22;3032;49.484;11.112;2023-02-24T00:33:39;12.20;99.90
6008;DHT22;3032;49.484;11.112;2023-02-24T00:36:17;12.30;99.90
6008;DHT22;3032;49.484;11.112;2023-02-24T00:38:49;12.20;99.90
6008;DHT22;3032;49.484;11.112;2023-02-24T00:41:17;12.50;99.90
6008;DHT22;3032;49.484;11.112;2023-02-24T00:43:44;12.00;99.90
6008;DHT22;3032;49.484;11.112;2023-02-24T00:46:15;12.00;99.90
6008;DHT22;3032;49.484;11.112;2023-02-24T00:48:43;11.90;99.90
6008;DHT22;3032;49.484;11.112;2023-02-24T00:51:11;12.10;99.90
6008;DHT22;3032;49.484;11.112;2023-02-24T00:53:37;12.20;99.90
6008;DHT22;3032;49.484;11.112;2023-02-24T00:56:05;12.20;99.90
6008;DHT22;3032;49.484;11.112;2023-02-24T00:58:33;12.30;99.90
6008;DHT22;3032;49.484;11.112;2023-02-24T01:00:59;12.40;99.90
6008;DHT22;3032;49.484;11.112;2023-02-24T01:03:26;12.30;99.90
6008;DHT22;3032;49.484;11.112;2023-02-24T01:05:52;12.50;99.90
6008;DHT22;3032;49.484;11.112;2023-02-24T01:08:18;12.20;99.90
6008;DHT22;3032;49.484;11.112;2023-02-24T01:10:58;12.20;99.90
6008;DHT22;3032;49.484;11.112;2023-02-24T01:13:44;12.30;99.90
6008;DHT22;3032;49.484;11.112;2023-02-24T01:16:10;12.40;99.90
6008;DHT22;3032;49.484;11.112;2023-02-24T01:18:38;12.30;99.90
6008;DHT22;3032;49.484;11.112;2023-02-24T01:21:03;12.30;99.90
6008;DHT22;3032;49.484;11.112;2023-02-24T01:23:29;12.30;99.90
6008;DHT22;3032;49.484;11.112;2023-02-24T01:25:55;12.30;99.90
6008;DHT22;3032;49.484;11.112;2023-02-24T01:28:27;12.30;99.90
6008;DHT22;3032;49.484;11.112;2023-02-24T01:30:53;12.20;99.90
6008;DHT22;3032;49.484;11.112;2023-02-24T01:33:20;12.30;99.90
6008;DHT22;3032;49.484;11.112;2023-02-24T01:35:46;12.20;99.90
6008;DHT22;3032;49.484;11.112;2023-02-24T01:38:11;12.20;99.90
6008;DHT22;3032;49.484;11.112;2023-02-24T01:40:37;12.20;99.90
6008;DHT22;3032;49.484;11.112;2023-02-24T01:43:04;12.20;99.90
6008;DHT22;3032;49.484;11.112;2023-02-24T01:45:34;12.30;99.90
6008;DHT22;3032;49.484;11.112;2023-02-24T01:48:07;12.30;99.90
6008;DHT22;3032;49.484;11.112;2023-02-24T01:50:35;12.30;99.90
6008;DHT22;3032;49.484;11.112;2023-02-24T01:53:04;12.30;99.90
6008;DHT22;3032;49.484;11.112;2023-02-24T01:55:43;12.20;99.90
6008;DHT22;3032;49.484;11.112;2023-02-24T01:58:19;12.20;99.90
6008;DHT22;3032;49.484;11.112;2023-02-24T02:00:46;12.20;99.90
6008;DHT22;3032;49.484;11.112;2023-02-24T02:03:19;12.20;99.90
6008;DHT22;3032;49.484;11.112;2023-02-24T02:05:48;12.20;99.90
6008;DHT22;3032;49.484;11.112;2023-02-24T02:08:17;12.10;99.90
6008;DHT22;3032;49.484;11.112;2023-02-24T02:10:43;12.10;99.90
6008;DHT22;3032;49.484;11.112;2023-02-24T02:13:11;12.10;99.90
6008;DHT22;3032;49.484;11.112;2023-02-24T02:15:55;12.20;99.90
6008;DHT22;3032;49.484;11.112;2023-02-24T02:18:39;12.30;99.90
6008;DHT22;3032;49.484;11.112;2023-02-24T02:21:30;12.10;99.90
6008;DHT22;3032;49.484;11.112;2023-02-24T02:26:44;12.20;99.90
6008;DHT22;3032;49.484;11.112;2023-02-24T02:32:34;12.00;99.90
6008;DHT22;3032;49.484;11.112;2023-02-24T02:35:32;12.00;99.90
6008;DHT22;3032;49.484;11.112;2023-02-24T02:43:37;12.00;99.90
6008;DHT22;3032;49.484;11.112;2023-02-24T02:46:14;12.00;99.90
6008;DHT22;3032;49.484;11.112;2023-02-24T02:48:54;12.40;99.90
6008;DHT22;3032;49.484;11.112;2023-02-24T02:51:38;12.00;99.90
6008;DHT22;3032;49.484;11.112;2023-02-24T02:54:07;12.10;99.90
6008;DHT22;3032;49.484;11.112;2023-02-24T02:56:41;12.00;99.90
6008;DHT22;3032;49.484;11.112;2023-02-24T02:59:10;12.00;99.90
6008;DHT22;3032;49.484;11.112;2023-02-24T03:01:40;12.10;99.90
6008;DHT22;3032;49.484;11.112;2023-02-24T03:04:09;12.10;99.90
6008;DHT22;3032;49.484;11.112;2023-02-24T03:06:43;11.80;99.90
6008;DHT22;3032;49.484;11.112;2023-02-24T03:09:46;11.70;99.90
6008;DHT22;3032;49.484;11.112;2023-02-24T03:12:06;11.80;99.90
6008;DHT22;3032;49.484;11.112;2023-02-24T03:14:36;11.80;99.90
6008;DHT22;3032;49.484;11.112;2023-02-24T03:17:10;11.90;99.90
6008;DHT22;3032;49.484;11.112;2023-02-24T03:19:38;11.90;99.90
6008;DHT22;3032;49.484;11.112;2023-02-24T03:24:37;11.80;99.90
6008;DHT22;3032;49.484;11.112;2023-02-24T03:32:28;11.70;99.90
6008;DHT22;3032;49.484;11.112;2023-02-24T03:35:14;11.60;99.90
6008;DHT22;3032;49.484;11.112;2023-02-24T03:37:41;11.40;99.90
6008;DHT22;3032;49.484;11.112;2023-02-24T03:40:10;11.30;99.90
6008;DHT22;3032;49.484;11.112;2023-02-24T03:42:49;11.40;99.90
6008;DHT22;3032;49.484;11.112;2023-02-24T03:45:16;11.50;99.90
6008;DHT22;3032;49.484;11.112;2023-02-24T03:47:41;11.50;99.90
6008;DHT22;3032;49.484;11.112;2023-02-24T03:50:15;11.50;99.90
6008;DHT22;3032;49.484;11.112;2023-02-24T03:52:54;11.60;99.90
6008;DHT22;3032;49.484;11.112;2023-02-24T03:58:27;11.40;99.90
6008;DHT22;3032;49.484;11.112;2023-02-24T04:06:28;11.50;99.90
6008;DHT22;3032;49.484;11.112;2023-02-24T04:09:49;11.50;99.90
6008;DHT22;3032;49.484;11.112;2023-02-24T04:12:17;11.50;99.90
6008;DHT22;3032;49.484;11.112;2023-02-24T04:17:41;11.30;99.90
6008;DHT22;3032;49.484;11.112;2023-02-24T04:20:09;11.30;99.90
6008;DHT22;3032;49.484;11.112;2023-02-24T04:22:48;11.40;99.90
6008;DHT22;3032;49.484;11.112;2023-02-24T04:25:18;11.50;99.90
6008;DHT22;3032;49.484;11.112;2023-02-24T04:27:50;11.50;99.90
6008;DHT22;3032;49.484;11.112;2023-02-24T04:30:17;11.50;99.90
6008;DHT22;3032;49.484;11.112;2023-02-24T04:32:42;11.40;99.90
6008;DHT22;3032;49.484;11.112;2023-02-24T04:35:12;11.20;99.90
6008;DHT22;3032;49.484;11.112;2023-02-24T04:37:38;10.90;99.90
6008;DHT22;3032;49.484;11.112;2023-02-24T04:40:14;10.80;99.90
6008;DHT22;3032;49.484;11.112;2023-02-24T04:42:43;10.90;99.90
6008;DHT22;3032;49.484;11.112;2023-02-24T04:47:46;10.90;99.90
6008;DHT22;3032;49.484;11.112;2023-02-24T04:50:17;10.70;99.90
6008;DHT22;3032;49.484;11.112;2023-02-24T04:52:57;10.60;99.90
6008;DHT22;3032;49.484;11.112;2023-02-24T04:55:26;10.40;99.90
6008;DHT22;3032;49.484;11.112;2023-02-24T04:57:58;10.40;99.90
6008;DHT22;3032;49.484;11.112;2023-02-24T05:00:25;10.40;99.90
6008;DHT22;3032;49.484;11.112;2023-02-24T05:02:55;10.60;99.90
6008;DHT22;3032;49.484;11.112;2023-02-24T05:05:23;10.70;99.90
6008;DHT22;3032;49.484;11.112;2023-02-24T05:07:50;10.50;99.90
6008;DHT22;3032;49.484;11.112;2023-02-24T05:10:16;10.30;99.90
6008;DHT22;3032;49.484;11.112;2023-02-24T05:12:43;10.50;99.90
6008;DHT22;3032;49.484;11.112;2023-02-24T05:15:09;10.70;99.90
6008;DHT22;3032;49.484;11.112;2023-02-24T05:17:36;10.80;99.90
6008;DHT22;3032;49.484;11.112;2023-02-24T05:20:03;10.80;99.90
6008;DHT22;3032;49.484;11.112;2023-02-24T05:22:48;10.70;99.90
6008;DHT22;3032;49.484;11.112;2023-02-24T05:25:16;10.70;99.90
6008;DHT22;3032;49.484;11.112;2023-02-24T05:27:42;10.70;99.90
6008;DHT22;3032;49.484;11.112;2023-02-24T05:30:08;10.60;99.90
6008;DHT22;3032;49.484;11.112;2023-02-24T05:32:35;10.50;99.90
6008;DHT22;3032;49.484;11.112;2023-02-24T05:35:01;10.60;99.90
6008;DHT22;3032;49.484;11.112;2023-02-24T05:37:26;10.60;99.90
6008;DHT22;3032;49.484;11.112;2023-02-24T05:39:56;10.60;99.90
6008;DHT22;3032;49.484;11.112;2023-02-24T05:42:24;10.60;99.90
6008;DHT22;3032;49.484;11.112;2023-02-24T05:44:52;10.60;99.90
6008;DHT22;3032;49.484;11.112;2023-02-24T05:47:18;10.60;99.90
6008;DHT22;3032;49.484;11.112;2023-02-24T05:49:44;10.80;99.90
6008;DHT22;3032;49.484;11.112;2023-02-24T05:52:12;10.90;99.90
6008;DHT22;3032;49.484;11.112;2023-02-24T05:54:42;11.00;99.90
6008;DHT22;3032;49.484;11.112;2023-02-24T05:57:12;10.90;99.90
6008;DHT22;3032;49.484;11.112;2023-02-24T05:59:40;10.90;99.90
6008;DHT22;3032;49.484;11.112;2023-02-24T06:02:08;10.80;99.90
6008;DHT22;3032;49.484;11.112;2023-02-24T06:04:36;10.80;99.90
6008;DHT22;3032;49.484;11.112;2023-02-24T06:07:10;10.90;99.90
6008;DHT22;3032;49.484;11.112;2023-02-24T06:09:43;10.90;99.90
6008;DHT22;3032;49.484;11.112;2023-02-24T06:12:10;11.00;99.90
6008;DHT22;3032;49.484;11.112;2023-02-24T06:14:35;11.10;99.90
6008;DHT22;3032;49.484;11.112;2023-02-24T06:17:01;11.00;99.90
6008;DHT22;3032;49.484;11.112;2023-02-24T06:19:27;11.00;99.90
6008;DHT22;3032;49.484;11.112;2023-02-24T06:21:57;10.80;99.90
6008;DHT22;3032;49.484;11.112;2023-02-24T06:24:27;10.70;99.90
6008;DHT22;3032;49.484;11.112;2023-02-24T06:26:53;10.70;99.90
6008;DHT22;3032;49.484;11.112;2023-02-24T06:29:25;10.70;99.90
6008;DHT22;3032;49.484;11.112;2023-02-24T06:31:54;10.70;99.90
6008;DHT22;3032;49.484;11.112;2023-02-24T06:34:22;10.90;99.90
6008;DHT22;3032;49.484;11.112;2023-02-24T06:36:52;10.90;99.90
6008;DHT22;3032;49.484;11.112;2023-02-24T06:39:18;10.80;99.90
6008;DHT22;3032;49.484;11.112;2023-02-24T06:41:44;10.90;99.90
6008;DHT22;3032;49.484;11.112;2023-02-24T06:44:09;10.80;99.90
6008;DHT22;3032;49.484;11.112;2023-02-24T06:46:35;10.70;99.90
6008;DHT22;3032;49.484;11.112;2023-02-24T06:49:01;10.80;99.90
6008;DHT22;3032;49.484;11.112;2023-02-24T06:51:27;10.90;99.90
6008;DHT22;3032;49.484;11.112;2023-02-24T06:53:55;10.80;99.90
6008;DHT22;3032;49.484;11.112;2023-02-24T06:56:21;11.10;99.90
6008;DHT22;3032;49.484;11.112;2023-02-24T06:58:49;11.10;99.90
6008;DHT22;3032;49.484;11.112;2023-02-24T07:01:21;11.20;99.90
6008;DHT22;3032;49.484;11.112;2023-02-24T07:03:53;11.30;99.90
6008;DHT22;3032;49.484;11.112;2023-02-24T07:06:38;11.30;99.90
6008;DHT22;3032;49.484;11.112;2023-02-24T07:09:11;11.30;99.90
6008;DHT22;3032;49.484;11.112;2023-02-24T07:11:39;11.40;99.90
6008;DHT22;3032;49.484;11.112;2023-02-24T07:14:09;11.30;99.90
6008;DHT22;3032;49.484;11.112;2023-02-24T07:16:36;11.30;99.90
6008;DHT22;3032;49.484;11.112;2023-02-24T07:19:06;11.20;99.90
6008;DHT22;3032;49.484;11.112;2023-02-24T07:21:37;11.30;99.90
6008;DHT22;3032;49.484;11.112;2023-02-24T07:24:08;11.40;99.90
6008;DHT22;3032;49.484;11.112;2023-02-24T07:26:38;11.30;99.90
6008;DHT22;3032;49.484;11.112;2023-02-24T07:29:07;11.10;99.90
6008;DHT22;3032;49.484;11.112;2023-02-24T07:31:33;11.10;99.90
6008;DHT22;3032;49.484;11.112;2023-02-24T07:34:01;11.10;99.90
6008;DHT22;3032;49.484;11.112;2023-02-24T07:36:28;11.10;99.90
6008;DHT22;3032;49.484;11.112;2023-02-24T07:38:57;11.10;99.90
6008;DHT22;3032;49.484;11.112;2023-02-24T07:41:24;11.00;99.90
6008;DHT22;3032;49.484;11.112;2023-02-24T07:43:51;10.90;99.90
6008;DHT22;3032;49.484;11.112;2023-02-24T07:46:23;11.00;99.90
6008;DHT22;3032;49.484;11.112;2023-02-24T07:48:50;11.10;99.90
6008;DHT22;3032;49.484;11.112;2023-02-24T07:51:18;11.30;99.90
6008;DHT22;3032;49.484;11.112;2023-02-24T07:53:51;11.40;99.90
6008;DHT22;3032;49.484;11.112;2023-02-24T07:56:18;11.30;99.90
6008;DHT22;3032;49.484;11.112;2023-02-24T07:58:48;11.10;99.90
6008;DHT22;3032;49.484;11.112;2023-02-24T08:01:18;11.20;99.90
6008;DHT22;3032;49.484;11.112;2023-02-24T08:03:54;11.20;99.90
6008;DHT22;3032;49.484;11.112;2023-02-24T08:06:29;11.40;99.90
6008;DHT22;3032;49.484;11.112;2023-02-24T08:09:10;11.50;99.90
6008;DHT22;3032;49.484;11.112;2023-02-24T08:11:48;11.60;99.90
6008;DHT22;3032;49.484;11.112;2023-02-24T08:14:25;11.50;99.90
6008;DHT22;3032;49.484;11.112;2023-02-24T08:16:55;11.60;99.90
6008;DHT22;3032;49.484;11.112;2023-02-24T08:19:26;11.60;99.90
6008;DHT22;3032;49.484;11.112;2023-02-24T08:21:58;11.70;99.90
6008;DHT22;3032;49.484;11.112;2023-02-24T08:24:44;11.50;99.90
6008;DHT22;3032;49.484;11.112;2023-02-24T08:27:09;11.40;99.90
6008;DHT22;3032;49.484;11.112;2023-02-24T08:29:38;11.20;99.90
6008;DHT22;3032;49.484;11.112;2023-02-24T08:35:11;11.10;99.90
6008;DHT22;3032;49.484;11.112;2023-02-24T08:37:42;11.00;99.90
6008;DHT22;3032;49.484;11.112;2023-02-24T08:40:19;11.00;99.90
6008;DHT22;3032;49.484;11.112;2023-02-24T08:43:03;11.20;99.90
6008;DHT22;3032;49.484;11.112;2023-02-24T08:45:45;11.50;99.90
6008;DHT22;3032;49.484;11.112;2023-02-24T08:48:12;11.40;99.90
6008;DHT22;3032;49.484;11.112;2023-02-24T08:51:00;11.60;99.90
6008;DHT22;3032;49.484;11.112;2023-02-24T08:53:27;11.80;99.90
6008;DHT22;3032;49.484;11.112;2023-02-24T08:56:00;11.80;99.90
6008;DHT22;3032;49.484;11.112;2023-02-24T08:58:44;11.90;99.90
6008;DHT22;3032;49.484;11.112;2023-02-24T09:01:21;12.00;99.90
6008;DHT22;3032;49.484;11.112;2023-02-24T09:03:52;11.80;99.90
6008;DHT22;3032;49.484;11.112;2023-02-24T09:06:21;11.80;99.90
6008;DHT22;3032;49.484;11.112;2023-02-24T09:08:53;12.20;99.90
6008;DHT22;3032;49.484;11.112;2023-02-24T09:11:39;11.80;99.90
6008;DHT22;3032;49.484;11.112;2023-02-24T09:14:10;12.00;99.90
6008;DHT22;3032;49.484;11.112;2023-02-24T09:16:44;12.00;99.90
6008;DHT22;3032;49.484;11.112;2023-02-24T09:22:08;11.60;99.90
6008;DHT22;3032;49.484;11.112;2023-02-24T09:24:54;11.70;99.90
6008;DHT22;3032;49.484;11.112;2023-02-24T09:27:39;11.50;99.90
6008;DHT22;3032;49.484;11.112;2023-02-24T09:30:08;11.60;99.90
6008;DHT22;3032;49.484;11.112;2023-02-24T09:32:54;11.70;99.90
6008;DHT22;3032;49.484;11.112;2023-02-24T09:35:26;11.90;99.90
6008;DHT22;3032;49.484;11.112;2023-02-24T09:37:56;12.00;99.90
6008;DHT22;3032;49.484;11.112;2023-02-24T09:40:25;11.90;99.90
6008;DHT22;3032;49.484;11.112;2023-02-24T09:43:07;11.80;99.90
6008;DHT22;3032;49.484;11.112;2023-02-24T09:45:52;12.00;99.90
6008;DHT22;3032;49.484;11.112;2023-02-24T09:48:33;12.30;99.90
6008;DHT22;3032;49.484;11.112;2023-02-24T09:51:11;12.60;99.90
6008;DHT22;3032;49.484;11.112;2023-02-24T09:53:50;12.90;99.90
6008;DHT22;3032;49.484;11.112;2023-02-24T09:56:35;13.10;99.90
6008;DHT22;3032;49.484;11.112;2023-02-24T09:59:31;13.20;99.90
6008;DHT22;3032;49.484;11.112;2023-02-24T10:02:29;13.20;99.90
6008;DHT22;3032;49.484;11.112;2023-02-24T10:05:27;13.40;99.90
6008;DHT22;3032;49.484;11.112;2023-02-24T10:08:06;13.40;99.90
6008;DHT22;3032;49.484;11.112;2023-02-24T10:10:35;13.30;99.90
6008;DHT22;3032;49.484;11.112;2023-02-24T10:13:19;13.00;99.90
6008;DHT22;3032;49.484;11.112;2023-02-24T10:15:56;13.10;99.90
6008;DHT22;3032;49.484;11.112;2023-02-24T10:18:44;13.20;99.90
6008;DHT22;3032;49.484;11.112;2023-02-24T10:21:33;13.20;99.90
6008;DHT22;3032;49.484;11.112;2023-02-24T10:24:46;13.30;99.90
6008;DHT22;3032;49.484;11.112;2023-02-24T10:27:24;13.50;99.90
6008;DHT22;3032;49.484;11.112;2023-02-24T10:30:06;13.70;99.90
6008;DHT22;3032;49.484;11.112;2023-02-24T10:32:55;14.00;99.90
6008;DHT22;3032;49.484;11.112;2023-02-24T10:35:24;14.60;99.90
6008;DHT22;3032;49.484;11.112;2023-02-24T10:37:51;15.20;99.90
6008;DHT22;3032;49.484;11.112;2023-02-24T10:40:19;15.30;99.90
6008;DHT22;3032;49.484;11.112;2023-02-24T10:43:08;15.80;99.90
6008;DHT22;3032;49.484;11.112;2023-02-24T10:45:38;15.70;99.90
6008;DHT22;3032;49.484;11.112;2023-02-24T10:48:15;15.10;99.90
6008;DHT22;3032;49.484;11.112;2023-02-24T10:50:51;14.80;99.90
6008;DHT22;3032;49.484;11.112;2023-02-24T10:53:21;15.30;99.90
6008;DHT22;3032;49.484;11.112;2023-02-24T10:56:13;15.00;99.90
6008;DHT22;3032;49.484;11.112;2023-02-24T10:59:13;14.40;99.90
6008;DHT22;3032;49.484;11.112;2023-02-24T11:02:26;14.30;99.90
6008;DHT22;3032;49.484;11.112;2023-02-24T11:04:59;14.30;99.90
6008;DHT22;3032;49.484;11.112;2023-02-24T11:07:25;14.20;99.90
6008;DHT22;3032;49.484;11.112;2023-02-24T11:10:08;13.80;99.90
6008;DHT22;3032;49.484;11.112;2023-02-24T11:12:46;13.60;99.90
6008;DHT22;3032;49.484;11.112;2023-02-24T11:15:32;13.80;99.90
6008;DHT22;3032;49.484;11.112;2023-02-24T11:18:22;14.10;99.90
6008;DHT22;3032;49.484;11.112;2023-02-24T11:20:58;14.70;99.90
6008;DHT22;3032;49.484;11.112;2023-02-24T11:23:34;14.70;99.90
6008;DHT22;3032;49.484;11.112;2023-02-24T11:26:14;14.60;99.90
6008;DHT22;3032;49.484;11.112;2023-02-24T11:29:13;14.40;99.90
6008;DHT22;3032;49.484;11.112;2023-02-24T11:34:52;14.60;99.90
6008;DHT22;3032;49.484;11.112;2023-02-24T11:40:06;14.60;99.90
6008;DHT22;3032;49.484;11.112;2023-02-24T11:45:42;14.00;99.90
6008;DHT22;3032;49.484;11.112;2023-02-24T11:48:38;13.40;99.90
6008;DHT22;3032;49.484;11.112;2023-02-24T11:51:16;12.90;99.90
6008;DHT22;3032;49.484;11.112;2023-02-24T11:54:00;12.80;99.90
6008;DHT22;3032;49.484;11.112;2023-02-24T11:59:17;12.60;99.90
6008;DHT22;3032;49.484;11.112;2023-02-24T12:01:54;12.60;99.90
6008;DHT22;3032;49.484;11.112;2023-02-24T12:04:58;12.60;99.90
6008;DHT22;3032;49.484;11.112;2023-02-24T12:07:30;12.70;99.90
6008;DHT22;3032;49.484;11.112;2023-02-24T12:10:03;12.30;99.90
6008;DHT22;3032;49.484;11.112;2023-02-24T12:12:38;12.50;99.90
6008;DHT22;3032;49.484;11.112;2023-02-24T12:15:24;12.60;99.90
6008;DHT22;3032;49.484;11.112;2023-02-24T12:20:54;12.80;99.90
6008;DHT22;3032;49.484;11.112;2023-02-24T12:23:32;12.40;99.90
6008;DHT22;3032;49.484;11.112;2023-02-24T12:42:50;12.70;99.90
6008;DHT22;3032;49.484;11.112;2023-02-24T12:56:27;13.60;99.90
6008;DHT22;3032;49.484;11.112;2023-02-24T12:59:03;13.70;99.90
6008;DHT22;3032;49.484;11.112;2023-02-24T13:01:58;13.30;99.90
6008;DHT22;3032;49.484;11.112;2023-02-24T13:10:16;12.70;99.90
6008;DHT22;3032;49.484;11.112;2023-02-24T13:15:31;12.40;99.90
6008;DHT22;3032;49.484;11.112;2023-02-24T13:17:57;12.40;99.90
6008;DHT22;3032;49.484;11.112;2023-02-24T13:20:33;12.30;99.90
6008;DHT22;3032;49.484;11.112;2023-02-24T13:23:00;12.30;99.90
6008;DHT22;3032;49.484;11.112;2023-02-24T13:25:37;12.30;99.90
6008;DHT22;3032;49.484;11.112;2023-02-24T13:28:20;12.30;99.90
6008;DHT22;3032;49.484;11.112;2023-02-24T13:30:57;12.10;99.90
6008;DHT22;3032;49.484;11.112;2023-02-24T13:33:28;12.30;99.90
6008;DHT22;3032;49.484;11.112;2023-02-24T13:36:24;12.30;99.90
6008;DHT22;3032;49.484;11.112;2023-02-24T13:39:03;12.50;99.90
6008;DHT22;3032;49.484;11.112;2023-02-24T13:41:36;12.40;99.90
6008;DHT22;3032;49.484;11.112;2023-02-24T13:44:22;12.30;99.90
6008;DHT22;3032;49.484;11.112;2023-02-24T13:50:04;12.30;99.90
6008;DHT22;3032;49.484;11.112;2023-02-24T13:58:35;12.30;99.90
6008;DHT22;3032;49.484;11.112;2023-02-24T14:01:11;12.60;99.90
6008;DHT22;3032;49.484;11.112;2023-02-24T14:03:41;12.80;99.90
6008;DHT22;3032;49.484;11.112;2023-02-24T14:06:24;12.90;99.90
6008;DHT22;3032;49.484;11.112;2023-02-24T14:08:54;13.10;99.90
6008;DHT22;3032;49.484;11.112;2023-02-24T14:11:23;13.10;99.90
6008;DHT22;3032;49.484;11.112;2023-02-24T14:13:53;13.00;99.90
6008;DHT22;3032;49.484;11.112;2023-02-24T14:16:34;13.10;99.90
6008;DHT22;3032;49.484;11.112;2023-02-24T14:19:03;13.30;99.90
6008;DHT22;3032;49.484;11.112;2023-02-24T14:21:32;13.20;99.90
6008;DHT22;3032;49.484;11.112;2023-02-24T14:24:08;12.90;99.90
6008;DHT22;3032;49.484;11.112;2023-02-24T14:26:44;12.80;99.90
6008;DHT22;3032;49.484;11.112;2023-02-24T14:29:13;12.90;99.90
6008;DHT22;3032;49.484;11.112;2023-02-24T14:31:46;12.90;99.90
6008;DHT22;3032;49.484;11.112;2023-02-24T14:34:16;12.80;99.90
6008;DHT22;3032;49.484;11.112;2023-02-24T14:36:44;12.80;99.90
6008;DHT22;3032;49.484;11.112;2023-02-24T14:39:21;12.60;99.90
6008;DHT22;3032;49.484;11.112;2023-02-24T14:41:49;12.60;99.90
6008;DHT22;3032;49.484;11.112;2023-02-24T14:44:20;12.70;99.90
6008;DHT22;3032;49.484;11.112;2023-02-24T14:46:54;12.80;99.90
6008;DHT22;3032;49.484;11.112;2023-02-24T14:49:25;13.00;99.90
6008;DHT22;3032;49.484;11.112;2023-02-24T14:52:08;13.10;99.90
6008;DHT22;3032;49.484;11.112;2023-02-24T14:54:37;13.20;99.90
6008;DHT22;3032;49.484;11.112;2023-02-24T14:57:10;13.20;99.90
6008;DHT22;3032;49.484;11.112;2023-02-24T14:59:37;13.30;99.90
6008;DHT22;3032;49.484;11.112;2023-02-24T15:02:13;13.20;99.90
6008;DHT22;3032;49.484;11.112;2023-02-24T15:04:40;13.00;99.90
6008;DHT22;3032;49.484;11.112;2023-02-24T15:07:19;12.70;99.90
6008;DHT22;3032;49.484;11.112;2023-02-24T15:09:47;12.70;99.90
6008;DHT22;3032;49.484;11.112;2023-02-24T15:12:31;12.60;99.90
6008;DHT22;3032;49.484;11.112;2023-02-24T15:15:18;12.60;99.90
6008;DHT22;3032;49.484;11.112;2023-02-24T15:17:46;12.60;99.90
6008;DHT22;3032;49.484;11.112;2023-02-24T15:20:29;12.50;99.90
6008;DHT22;3032;49.484;11.112;2023-02-24T15:22:56;12.50;99.90
6008;DHT22;3032;49.484;11.112;2023-02-24T15:25:41;12.60;99.90
6008;DHT22;3032;49.484;11.112;2023-02-24T15:28:29;12.50;99.90
6008;DHT22;3032;49.484;11.112;2023-02-24T15:31:03;12.60;99.90
6008;DHT22;3032;49.484;11.112;2023-02-24T15:33:38;12.80;99.90
6008;DHT22;3032;49.484;11.112;2023-02-24T15:36:08;12.70;99.90
6008;DHT22;3032;49.484;11.112;2023-02-24T15:38:36;12.50;99.90
6008;DHT22;3032;49.484;11.112;2023-02-24T15:41:05;12.50;99.90
6008;DHT22;3032;49.484;11.112;2023-02-24T15:43:36;12.50;99.90
6008;DHT22;3032;49.484;11.112;2023-02-24T15:48:46;11.60;99.90
6008;DHT22;3032;49.484;11.112;2023-02-24T15:51:28;11.50;99.90
6008;DHT22;3032;49.484;11.112;2023-02-24T15:53:54;11.60;99.90
6008;DHT22;3032;49.484;11.112;2023-02-24T15:56:19;11.60;99.90
6008;DHT22;3032;49.484;11.112;2023-02-24T15:58:45;11.30;99.90
6008;DHT22;3032;49.484;11.112;2023-02-24T16:01:11;11.20;99.90
6008;DHT22;3032;49.484;11.112;2023-02-24T16:03:37;11.10;99.90
6008;DHT22;3032;49.484;11.112;2023-02-24T16:06:03;11.20;99.90
6008;DHT22;3032;49.484;11.112;2023-02-24T16:08:29;11.30;99.90
6008;DHT22;3032;49.484;11.112;2023-02-24T16:10:55;11.10;99.90
6008;DHT22;3032;49.484;11.112;2023-02-24T16:13:23;11.20;99.90
6008;DHT22;3032;49.484;11.112;2023-02-24T16:15:49;11.10;99.90
6008;DHT22;3032;49.484;11.112;2023-02-24T16:18:21;11.10;99.90
6008;DHT22;3032;49.484;11.112;2023-02-24T16:20:48;11.10;99.90
6008;DHT22;3032;49.484;11.112;2023-02-24T16:23:19;11.10;99.90
6008;DHT22;3032;49.484;11.112;2023-02-24T16:25:45;11.00;99.90
6008;DHT22;3032;49.484;11.112;2023-02-24T16:28:19;11.10;99.90
6008;DHT22;3032;49.484;11.112;2023-02-24T16:30:45;11.00;99.90
6008;DHT22;3032;49.484;11.112;2023-02-24T16:33:13;11.00;99.90
6008;DHT22;3032;49.484;11.112;2023-02-24T16:35:40;10.90;99.90
6008;DHT22;3032;49.484;11.112;2023-02-24T16:38:11;10.60;99.90
6008;DHT22;3032;49.484;11.112;2023-02-24T16:40:41;10.60;99.90
6008;DHT22;3032;49.484;11.112;2023-02-24T16:43:07;10.60;99.90
6008;DHT22;3032;49.484;11.112;2023-02-24T16:45:33;10.70;99.90
6008;DHT22;3032;49.484;11.112;2023-02-24T16:48:05;10.50;99.90
6008;DHT22;3032;49.484;11.112;2023-02-24T16:50:37;10.30;99.90
6008;DHT22;3032;49.484;11.112;2023-02-24T16:53:04;10.30;99.90
6008;DHT22;3032;49.484;11.112;2023-02-24T16:55:29;10.40;99.90
6008;DHT22;3032;49.484;11.112;2023-02-24T16:57:55;10.50;99.90
6008;DHT22;3032;49.484;11.112;2023-02-24T17:00:21;10.50;99.90
6008;DHT22;3032;49.484;11.112;2023-02-24T17:02:47;10.50;99.90
6008;DHT22;3032;49.484;11.112;2023-02-24T17:05:21;10.60;99.90
6008;DHT22;3032;49.484;11.112;2023-02-24T17:07:49;10.60;99.90
6008;DHT22;3032;49.484;11.112;2023-02-24T17:10:15;10.30;99.90
6008;DHT22;3032;49.484;11.112;2023-02-24T17:12:41;10.40;99.90
6008;DHT22;3032;49.484;11.112;2023-02-24T17:15:12;10.40;99.90
6008;DHT22;3032;49.484;11.112;2023-02-24T17:17:38;10.10;99.90
6008;DHT22;3032;49.484;11.112;2023-02-24T17:20:04;10.10;99.90
6008;DHT22;3032;49.484;11.112;2023-02-24T17:22:30;10.20;99.90
6008;DHT22;3032;49.484;11.112;2023-02-24T17:24:56;10.00;99.90
6008;DHT22;3032;49.484;11.112;2023-02-24T17:27:21;10.10;99.90
6008;DHT22;3032;49.484;11.112;2023-02-24T17:29:47;10.10;99.90
6008;DHT22;3032;49.484;11.112;2023-02-24T17:32:13;10.10;99.90
6008;DHT22;3032;49.484;11.112;2023-02-24T17:34:38;10.00;99.90
6008;DHT22;3032;49.484;11.112;2023-02-24T17:37:04;10.20;99.90
6008;DHT22;3032;49.484;11.112;2023-02-24T17:39:29;10.30;99.90
6008;DHT22;3032;49.484;11.112;2023-02-24T17:41:55;10.20;99.90
6008;DHT22;3032;49.484;11.112;2023-02-24T17:44:20;10.30;99.90
6008;DHT22;3032;49.484;11.112;2023-02-24T17:46:46;10.40;99.90
6008;DHT22;3032;49.484;11.112;2023-02-24T17:49:12;10.60;99.90
6008;DHT22;3032;49.484;11.112;2023-02-24T17:51:37;10.90;99.90
6008;DHT22;3032;49.484;11.112;2023-02-24T17:54:03;11.00;99.90
6008;DHT22;3032;49.484;11.112;2023-02-24T17:56:29;11.40;99.90
6008;DHT22;3032;49.484;11.112;2023-02-24T17:58:54;10.80;99.90
6008;DHT22;3032;49.484;11.112;2023-02-24T18:01:24;10.70;99.90